sensor_id;sensor_type;location;lat;lon;timestamp;P1;durP1;ratioP1;P2;durP2;ratioP2
18217;SDS011;9234;49.344;11.120;2023-07-16T00:02:18;6.90;;;6.20;;
18217;SDS011;9234;49.344;11.120;2023-07-16T00:04:46;7.25;;;5.50;;
18217;SDS011;9234;49.344;11.120;2023-07-16T00:07:14;7.07;;;6.10;;
18217;SDS011;9234;49.344;11.120;2023-07-16T00:09:45;6.32;;;5.60;;
18217;SDS011;9234;49.344;11.120;2023-07-16T00:12:13;8.27;;;5.63;;
18217;SDS011;9234;49.344;11.120;2023-07-16T00:14:41;7.55;;;5.80;;
18217;SDS011;9234;49.344;11.120;2023-07-16T00:17:09;6.40;;;5.90;;
18217;SDS011;9234;49.344;11.120;2023-07-16T00:19:40;7.68;;;6.57;;
18217;SDS011;9234;49.344;11.120;2023-07-16T00:22:08;6.82;;;6.22;;
18217;SDS011;9234;49.344;11.120;2023-07-16T00:24:36;8.15;;;6.15;;
18217;SDS011;9234;49.344;11.120;2023-07-16T00:27:06;6.70;;;6.10;;
18217;SDS011;9234;49.344;11.120;2023-07-16T00:29:34;7.78;;;6.10;;
18217;SDS011;9234;49.344;11.120;2023-07-16T00:32:03;9.75;;;6.07;;
18217;SDS011;9234;49.344;11.120;2023-07-16T00:34:32;6.35;;;5.75;;
18217;SDS011;9234;49.344;11.120;2023-07-16T00:37:00;7.00;;;6.35;;
18217;SDS011;9234;49.344;11.120;2023-07-16T00:39:29;7.80;;;6.38;;
18217;SDS011;9234;49.344;11.120;2023-07-16T00:41:58;8.65;;;6.18;;
18217;SDS011;9234;49.344;11.120;2023-07-16T00:44:28;6.88;;;6.18;;
18217;SDS011;9234;49.344;11.120;2023-07-16T00:46:56;8.00;;;6.10;;
18217;SDS011;9234;49.344;11.120;2023-07-16T00:49:25;6.45;;;5.80;;
18217;SDS011;9234;49.344;11.120;2023-07-16T00:51:55;6.68;;;5.95;;
18217;SDS011;9234;49.344;11.120;2023-07-16T00:54:27;7.45;;;6.20;;
18217;SDS011;9234;49.344;11.120;2023-07-16T00:56:57;7.93;;;5.75;;
18217;SDS011;9234;49.344;11.120;2023-07-16T00:59:27;5.65;;;5.13;;
18217;SDS011;9234;49.344;11.120;2023-07-16T01:01:57;6.57;;;5.18;;
18217;SDS011;9234;49.344;11.120;2023-07-16T01:04:26;6.47;;;5.40;;
18217;SDS011;9234;49.344;11.120;2023-07-16T01:06:55;8.73;;;6.25;;
18217;SDS011;9234;49.344;11.120;2023-07-16T01:09:32;6.82;;;5.50;;
18217;SDS011;9234;49.344;11.120;2023-07-16T01:12:03;7.15;;;6.05;;
18217;SDS011;9234;49.344;11.120;2023-07-16T01:14:35;6.25;;;5.65;;
18217;SDS011;9234;49.344;11.120;2023-07-16T01:17:06;7.15;;;5.70;;
18217;SDS011;9234;49.344;11.120;2023-07-16T01:19:35;6.13;;;5.60;;
18217;SDS011;9234;49.344;11.120;2023-07-16T01:22:09;6.30;;;5.25;;
18217;SDS011;9234;49.344;11.120;2023-07-16T01:24:59;4.90;;;3.88;;
18217;SDS011;9234;49.344;11.120;2023-07-16T01:27:58;4.22;;;3.13;;
18217;SDS011;9234;49.344;11.120;2023-07-16T01:30:40;3.70;;;3.22;;
18217;SDS011;9234;49.344;11.120;2023-07-16T01:33:11;4.47;;;3.47;;
18217;SDS011;9234;49.344;11.120;2023-07-16T01:35:42;3.80;;;3.20;;
18217;SDS011;9234;49.344;11.120;2023-07-16T01:38:12;6.25;;;3.92;;
18217;SDS011;9234;49.344;11.120;2023-07-16T01:40:43;3.67;;;2.97;;
18217;SDS011;9234;49.344;11.120;2023-07-16T01:43:12;4.82;;;3.20;;
18217;SDS011;9234;49.344;11.120;2023-07-16T01:45:41;3.80;;;3.28;;
18217;SDS011;9234;49.344;11.120;2023-07-16T01:48:13;4.50;;;3.53;;
18217;SDS011;9234;49.344;11.120;2023-07-16T01:50:55;7.75;;;3.60;;
18217;SDS011;9234;49.344;11.120;2023-07-16T01:53:23;4.57;;;3.25;;
18217;SDS011;9234;49.344;11.120;2023-07-16T01:55:52;3.47;;;3.03;;
18217;SDS011;9234;49.344;11.120;2023-07-16T01:58:20;4.38;;;3.20;;
18217;SDS011;9234;49.344;11.120;2023-07-16T02:00:50;3.33;;;2.88;;
18217;SDS011;9234;49.344;11.120;2023-07-16T02:03:19;6.03;;;2.80;;
18217;SDS011;9234;49.344;11.120;2023-07-16T02:05:48;3.47;;;2.40;;
18217;SDS011;9234;49.344;11.120;2023-07-16T02:08:16;2.83;;;2.63;;
18217;SDS011;9234;49.344;11.120;2023-07-16T02:10:46;3.28;;;2.80;;
18217;SDS011;9234;49.344;11.120;2023-07-16T02:13:15;4.43;;;3.10;;
18217;SDS011;9234;49.344;11.120;2023-07-16T02:15:44;4.35;;;2.95;;
18217;SDS011;9234;49.344;11.120;2023-07-16T02:18:15;3.75;;;2.90;;
18217;SDS011;9234;49.344;11.120;2023-07-16T02:20:43;3.85;;;2.95;;
18217;SDS011;9234;49.344;11.120;2023-07-16T02:23:12;3.58;;;2.75;;
18217;SDS011;9234;49.344;11.120;2023-07-16T02:25:40;3.47;;;2.63;;
18217;SDS011;9234;49.344;11.120;2023-07-16T02:28:08;3.08;;;2.33;;
18217;SDS011;9234;49.344;11.120;2023-07-16T02:30:36;3.03;;;2.72;;
18217;SDS011;9234;49.344;11.120;2023-07-16T02:33:07;2.28;;;2.08;;
18217;SDS011;9234;49.344;11.120;2023-07-16T02:35:37;8.13;;;2.22;;
18217;SDS011;9234;49.344;11.120;2023-07-16T02:38:05;3.35;;;2.20;;
18217;SDS011;9234;49.344;11.120;2023-07-16T02:40:33;3.97;;;2.25;;
18217;SDS011;9234;49.344;11.120;2023-07-16T02:43:04;2.78;;;2.47;;
18217;SDS011;9234;49.344;11.120;2023-07-16T02:45:32;2.35;;;2.17;;
18217;SDS011;9234;49.344;11.120;2023-07-16T02:48:01;3.15;;;2.35;;
18217;SDS011;9234;49.344;11.120;2023-07-16T02:50:33;2.42;;;2.17;;
18217;SDS011;9234;49.344;11.120;2023-07-16T02:53:03;2.55;;;2.20;;
18217;SDS011;9234;49.344;11.120;2023-07-16T02:55:33;3.15;;;2.53;;
18217;SDS011;9234;49.344;11.120;2023-07-16T02:58:03;2.72;;;2.53;;
18217;SDS011;9234;49.344;11.120;2023-07-16T03:00:32;2.67;;;2.28;;
18217;SDS011;9234;49.344;11.120;2023-07-16T03:03:01;2.92;;;2.60;;
18217;SDS011;9234;49.344;11.120;2023-07-16T03:05:30;2.58;;;2.38;;
18217;SDS011;9234;49.344;11.120;2023-07-16T03:07:58;2.70;;;2.50;;
18217;SDS011;9234;49.344;11.120;2023-07-16T03:10:28;2.97;;;2.67;;
18217;SDS011;9234;49.344;11.120;2023-07-16T03:12:56;2.67;;;2.42;;
18217;SDS011;9234;49.344;11.120;2023-07-16T03:15:24;2.67;;;2.47;;
18217;SDS011;9234;49.344;11.120;2023-07-16T03:17:53;4.70;;;2.50;;
18217;SDS011;9234;49.344;11.120;2023-07-16T03:20:22;3.40;;;2.58;;
18217;SDS011;9234;49.344;11.120;2023-07-16T03:22:50;4.88;;;3.00;;
18217;SDS011;9234;49.344;11.120;2023-07-16T03:25:18;3.03;;;2.45;;
18217;SDS011;9234;49.344;11.120;2023-07-16T03:27:48;3.30;;;2.50;;
18217;SDS011;9234;49.344;11.120;2023-07-16T03:30:16;2.28;;;1.95;;
18217;SDS011;9234;49.344;11.120;2023-07-16T03:32:44;3.78;;;2.10;;
18217;SDS011;9234;49.344;11.120;2023-07-16T03:35:21;3.08;;;2.50;;
18217;SDS011;9234;49.344;11.120;2023-07-16T03:37:51;4.13;;;2.33;;
18217;SDS011;9234;49.344;11.120;2023-07-16T03:40:23;2.55;;;2.35;;
18217;SDS011;9234;49.344;11.120;2023-07-16T03:42:54;1.65;;;1.48;;
18217;SDS011;9234;49.344;11.120;2023-07-16T03:45:23;1.85;;;1.52;;
18217;SDS011;9234;49.344;11.120;2023-07-16T03:47:52;1.83;;;1.73;;
18217;SDS011;9234;49.344;11.120;2023-07-16T03:50:20;2.47;;;2.28;;
18217;SDS011;9234;49.344;11.120;2023-07-16T03:52:49;3.92;;;2.15;;
18217;SDS011;9234;49.344;11.120;2023-07-16T03:55:17;2.35;;;2.00;;
18217;SDS011;9234;49.344;11.120;2023-07-16T03:57:46;2.40;;;2.20;;
18217;SDS011;9234;49.344;11.120;2023-07-16T04:00:15;2.90;;;1.67;;
18217;SDS011;9234;49.344;11.120;2023-07-16T04:02:48;2.60;;;1.98;;
18217;SDS011;9234;49.344;11.120;2023-07-16T04:05:17;2.30;;;1.45;;
18217;SDS011;9234;49.344;11.120;2023-07-16T04:07:49;2.42;;;1.92;;
18217;SDS011;9234;49.344;11.120;2023-07-16T04:10:18;2.17;;;1.92;;
18217;SDS011;9234;49.344;11.120;2023-07-16T04:12:46;2.38;;;1.75;;
18217;SDS011;9234;49.344;11.120;2023-07-16T04:15:16;3.85;;;2.22;;
18217;SDS011;9234;49.344;11.120;2023-07-16T04:17:44;3.05;;;2.05;;
18217;SDS011;9234;49.344;11.120;2023-07-16T04:20:12;2.10;;;1.30;;
18217;SDS011;9234;49.344;11.120;2023-07-16T04:22:41;3.00;;;1.05;;
18217;SDS011;9234;49.344;11.120;2023-07-16T04:25:09;1.50;;;0.82;;
18217;SDS011;9234;49.344;11.120;2023-07-16T04:27:37;1.88;;;1.13;;
18217;SDS011;9234;49.344;11.120;2023-07-16T04:30:08;3.17;;;1.33;;
18217;SDS011;9234;49.344;11.120;2023-07-16T04:32:38;1.45;;;1.30;;
18217;SDS011;9234;49.344;11.120;2023-07-16T04:35:07;4.75;;;1.75;;
18217;SDS011;9234;49.344;11.120;2023-07-16T04:37:36;2.45;;;1.27;;
18217;SDS011;9234;49.344;11.120;2023-07-16T04:40:05;2.15;;;1.20;;
18217;SDS011;9234;49.344;11.120;2023-07-16T04:42:35;1.13;;;1.02;;
18217;SDS011;9234;49.344;11.120;2023-07-16T04:45:04;1.75;;;1.27;;
18217;SDS011;9234;49.344;11.120;2023-07-16T04:47:33;1.42;;;1.33;;
18217;SDS011;9234;49.344;11.120;2023-07-16T04:50:03;2.17;;;1.17;;
18217;SDS011;9234;49.344;11.120;2023-07-16T04:52:33;1.77;;;0.90;;
18217;SDS011;9234;49.344;11.120;2023-07-16T04:55:01;3.15;;;1.15;;
18217;SDS011;9234;49.344;11.120;2023-07-16T04:57:31;3.28;;;1.58;;
18217;SDS011;9234;49.344;11.120;2023-07-16T05:00:00;1.52;;;1.08;;
18217;SDS011;9234;49.344;11.120;2023-07-16T05:02:29;2.38;;;1.48;;
18217;SDS011;9234;49.344;11.120;2023-07-16T05:04:58;1.33;;;0.75;;
18217;SDS011;9234;49.344;11.120;2023-07-16T05:07:28;3.03;;;1.35;;
18217;SDS011;9234;49.344;11.120;2023-07-16T05:09:56;1.95;;;1.38;;
18217;SDS011;9234;49.344;11.120;2023-07-16T05:12:24;1.92;;;1.00;;
18217;SDS011;9234;49.344;11.120;2023-07-16T05:14:53;2.40;;;1.20;;
18217;SDS011;9234;49.344;11.120;2023-07-16T05:17:21;1.55;;;1.40;;
18217;SDS011;9234;49.344;11.120;2023-07-16T05:19:50;4.57;;;1.33;;
18217;SDS011;9234;49.344;11.120;2023-07-16T05:22:18;3.75;;;0.95;;
18217;SDS011;9234;49.344;11.120;2023-07-16T05:24:48;4.63;;;1.65;;
18217;SDS011;9234;49.344;11.120;2023-07-16T05:27:18;2.08;;;1.25;;
18217;SDS011;9234;49.344;11.120;2023-07-16T05:29:47;1.88;;;1.50;;
18217;SDS011;9234;49.344;11.120;2023-07-16T05:32:15;2.20;;;1.20;;
18217;SDS011;9234;49.344;11.120;2023-07-16T05:34:43;2.20;;;1.23;;
18217;SDS011;9234;49.344;11.120;2023-07-16T05:37:12;4.78;;;1.55;;
18217;SDS011;9234;49.344;11.120;2023-07-16T05:39:40;1.98;;;0.98;;
18217;SDS011;9234;49.344;11.120;2023-07-16T05:42:10;2.40;;;1.33;;
18217;SDS011;9234;49.344;11.120;2023-07-16T05:44:47;2.83;;;1.10;;
18217;SDS011;9234;49.344;11.120;2023-07-16T05:47:16;2.17;;;1.38;;
18217;SDS011;9234;49.344;11.120;2023-07-16T05:49:44;2.28;;;1.33;;
18217;SDS011;9234;49.344;11.120;2023-07-16T05:52:12;2.90;;;1.83;;
18217;SDS011;9234;49.344;11.120;2023-07-16T05:54:42;3.65;;;1.83;;
18217;SDS011;9234;49.344;11.120;2023-07-16T05:57:12;5.10;;;1.67;;
18217;SDS011;9234;49.344;11.120;2023-07-16T05:59:40;3.35;;;1.65;;
18217;SDS011;9234;49.344;11.120;2023-07-16T06:02:09;1.45;;;1.13;;
18217;SDS011;9234;49.344;11.120;2023-07-16T06:04:37;2.35;;;1.17;;
18217;SDS011;9234;49.344;11.120;2023-07-16T06:07:05;4.38;;;1.90;;
18217;SDS011;9234;49.344;11.120;2023-07-16T06:09:34;2.88;;;1.65;;
18217;SDS011;9234;49.344;11.120;2023-07-16T06:12:02;3.42;;;1.30;;
18217;SDS011;9234;49.344;11.120;2023-07-16T06:14:33;5.07;;;1.30;;
18217;SDS011;9234;49.344;11.120;2023-07-16T06:17:01;2.60;;;1.50;;
18217;SDS011;9234;49.344;11.120;2023-07-16T06:19:29;1.70;;;0.98;;
18217;SDS011;9234;49.344;11.120;2023-07-16T06:21:58;3.63;;;1.88;;
18217;SDS011;9234;49.344;11.120;2023-07-16T06:24:26;1.45;;;1.27;;
18217;SDS011;9234;49.344;11.120;2023-07-16T06:26:54;2.47;;;1.25;;
18217;SDS011;9234;49.344;11.120;2023-07-16T06:29:23;4.22;;;2.13;;
18217;SDS011;9234;49.344;11.120;2023-07-16T06:31:55;3.63;;;1.58;;
18217;SDS011;9234;49.344;11.120;2023-07-16T06:34:25;4.38;;;1.70;;
18217;SDS011;9234;49.344;11.120;2023-07-16T06:36:53;6.78;;;1.80;;
18217;SDS011;9234;49.344;11.120;2023-07-16T06:39:22;5.05;;;1.70;;
18217;SDS011;9234;49.344;11.120;2023-07-16T06:41:50;2.22;;;1.83;;
18217;SDS011;9234;49.344;11.120;2023-07-16T06:44:20;4.10;;;1.73;;
18217;SDS011;9234;49.344;11.120;2023-07-16T06:46:50;3.88;;;1.83;;
18217;SDS011;9234;49.344;11.120;2023-07-16T06:49:21;1.73;;;1.35;;
18217;SDS011;9234;49.344;11.120;2023-07-16T06:51:49;4.82;;;1.85;;
18217;SDS011;9234;49.344;11.120;2023-07-16T06:54:18;4.43;;;1.60;;
18217;SDS011;9234;49.344;11.120;2023-07-16T06:56:46;3.63;;;2.22;;
18217;SDS011;9234;49.344;11.120;2023-07-16T06:59:14;3.10;;;1.40;;
18217;SDS011;9234;49.344;11.120;2023-07-16T07:01:42;3.55;;;1.52;;
18217;SDS011;9234;49.344;11.120;2023-07-16T07:04:11;3.17;;;1.90;;
18217;SDS011;9234;49.344;11.120;2023-07-16T07:06:40;4.00;;;1.60;;
18217;SDS011;9234;49.344;11.120;2023-07-16T07:09:08;4.22;;;1.30;;
18217;SDS011;9234;49.344;11.120;2023-07-16T07:11:37;2.35;;;1.67;;
18217;SDS011;9234;49.344;11.120;2023-07-16T07:14:05;5.28;;;1.85;;
18217;SDS011;9234;49.344;11.120;2023-07-16T07:16:37;2.60;;;1.60;;
18217;SDS011;9234;49.344;11.120;2023-07-16T07:19:06;2.40;;;1.58;;
18217;SDS011;9234;49.344;11.120;2023-07-16T07:21:36;5.15;;;1.88;;
18217;SDS011;9234;49.344;11.120;2023-07-16T07:24:05;3.88;;;1.73;;
18217;SDS011;9234;49.344;11.120;2023-07-16T07:26:34;4.47;;;1.70;;
18217;SDS011;9234;49.344;11.120;2023-07-16T07:29:02;5.93;;;1.88;;
18217;SDS011;9234;49.344;11.120;2023-07-16T07:31:30;4.28;;;1.80;;
18217;SDS011;9234;49.344;11.120;2023-07-16T07:33:59;4.95;;;1.90;;
18217;SDS011;9234;49.344;11.120;2023-07-16T07:36:28;5.53;;;1.70;;
18217;SDS011;9234;49.344;11.120;2023-07-16T07:38:56;3.40;;;1.75;;
18217;SDS011;9234;49.344;11.120;2023-07-16T07:41:26;4.22;;;1.45;;
18217;SDS011;9234;49.344;11.120;2023-07-16T07:43:54;2.05;;;1.80;;
18217;SDS011;9234;49.344;11.120;2023-07-16T07:46:23;4.85;;;1.40;;
18217;SDS011;9234;49.344;11.120;2023-07-16T07:48:51;4.03;;;1.63;;
18217;SDS011;9234;49.344;11.120;2023-07-16T07:51:20;3.58;;;1.75;;
18217;SDS011;9234;49.344;11.120;2023-07-16T07:53:48;5.68;;;2.17;;
18217;SDS011;9234;49.344;11.120;2023-07-16T07:56:16;4.35;;;1.75;;
18217;SDS011;9234;49.344;11.120;2023-07-16T07:58:46;5.10;;;1.77;;
18217;SDS011;9234;49.344;11.120;2023-07-16T08:01:15;3.45;;;1.52;;
18217;SDS011;9234;49.344;11.120;2023-07-16T08:03:43;5.57;;;2.00;;
18217;SDS011;9234;49.344;11.120;2023-07-16T08:06:11;4.05;;;1.85;;
18217;SDS011;9234;49.344;11.120;2023-07-16T08:08:40;4.25;;;1.83;;
18217;SDS011;9234;49.344;11.120;2023-07-16T08:11:08;7.82;;;2.10;;
18217;SDS011;9234;49.344;11.120;2023-07-16T08:13:37;5.70;;;2.25;;
18217;SDS011;9234;49.344;11.120;2023-07-16T08:16:07;4.35;;;2.15;;
18217;SDS011;9234;49.344;11.120;2023-07-16T08:18:35;8.07;;;1.75;;
18217;SDS011;9234;49.344;11.120;2023-07-16T08:21:03;4.68;;;1.80;;
18217;SDS011;9234;49.344;11.120;2023-07-16T08:23:32;4.30;;;2.20;;
18217;SDS011;9234;49.344;11.120;2023-07-16T08:26:00;5.45;;;1.95;;
18217;SDS011;9234;49.344;11.120;2023-07-16T08:28:28;4.70;;;1.98;;
18217;SDS011;9234;49.344;11.120;2023-07-16T08:30:57;4.32;;;2.05;;
18217;SDS011;9234;49.344;11.120;2023-07-16T08:33:26;3.70;;;1.77;;
18217;SDS011;9234;49.344;11.120;2023-07-16T08:35:55;3.08;;;1.92;;
18217;SDS011;9234;49.344;11.120;2023-07-16T08:38:23;3.03;;;1.40;;
18217;SDS011;9234;49.344;11.120;2023-07-16T08:40:51;6.57;;;1.80;;
18217;SDS011;9234;49.344;11.120;2023-07-16T08:43:19;4.95;;;1.90;;
18217;SDS011;9234;49.344;11.120;2023-07-16T08:45:49;7.28;;;1.98;;
18217;SDS011;9234;49.344;11.120;2023-07-16T08:48:17;5.22;;;2.00;;
18217;SDS011;9234;49.344;11.120;2023-07-16T08:50:48;4.65;;;1.92;;
18217;SDS011;9234;49.344;11.120;2023-07-16T08:53:17;5.03;;;1.95;;
18217;SDS011;9234;49.344;11.120;2023-07-16T08:55:47;2.95;;;1.48;;
18217;SDS011;9234;49.344;11.120;2023-07-16T08:58:18;5.20;;;1.90;;
18217;SDS011;9234;49.344;11.120;2023-07-16T09:00:50;5.43;;;2.00;;
18217;SDS011;9234;49.344;11.120;2023-07-16T09:03:19;4.20;;;1.63;;
18217;SDS011;9234;49.344;11.120;2023-07-16T09:05:49;3.72;;;1.67;;
18217;SDS011;9234;49.344;11.120;2023-07-16T09:08:18;8.43;;;1.98;;
18217;SDS011;9234;49.344;11.120;2023-07-16T09:10:52;4.20;;;2.03;;
18217;SDS011;9234;49.344;11.120;2023-07-16T09:13:21;5.50;;;1.90;;
18217;SDS011;9234;49.344;11.120;2023-07-16T09:15:53;4.18;;;1.95;;
18217;SDS011;9234;49.344;11.120;2023-07-16T09:18:23;4.90;;;1.83;;
18217;SDS011;9234;49.344;11.120;2023-07-16T09:20:55;5.00;;;1.80;;
18217;SDS011;9234;49.344;11.120;2023-07-16T09:23:24;5.80;;;1.83;;
18217;SDS011;9234;49.344;11.120;2023-07-16T09:25:54;5.82;;;1.92;;
18217;SDS011;9234;49.344;11.120;2023-07-16T09:28:23;7.43;;;1.55;;
18217;SDS011;9234;49.344;11.120;2023-07-16T09:30:51;7.22;;;1.88;;
18217;SDS011;9234;49.344;11.120;2023-07-16T09:33:21;6.10;;;1.85;;
18217;SDS011;9234;49.344;11.120;2023-07-16T09:35:52;4.28;;;2.03;;
18217;SDS011;9234;49.344;11.120;2023-07-16T09:38:22;5.28;;;1.85;;
18217;SDS011;9234;49.344;11.120;2023-07-16T09:40:51;5.80;;;2.05;;
18217;SDS011;9234;49.344;11.120;2023-07-16T09:43:21;7.88;;;1.92;;
18217;SDS011;9234;49.344;11.120;2023-07-16T09:45:49;7.53;;;1.48;;
18217;SDS011;9234;49.344;11.120;2023-07-16T09:48:17;4.15;;;1.90;;
18217;SDS011;9234;49.344;11.120;2023-07-16T09:50:49;5.75;;;1.75;;
18217;SDS011;9234;49.344;11.120;2023-07-16T09:53:23;4.57;;;2.28;;
18217;SDS011;9234;49.344;11.120;2023-07-16T09:55:54;4.85;;;1.98;;
18217;SDS011;9234;49.344;11.120;2023-07-16T09:58:24;3.67;;;1.60;;
18217;SDS011;9234;49.344;11.120;2023-07-16T10:00:54;6.18;;;1.90;;
18217;SDS011;9234;49.344;11.120;2023-07-16T10:03:24;3.03;;;1.50;;
18217;SDS011;9234;49.344;11.120;2023-07-16T10:05:52;4.53;;;2.00;;
18217;SDS011;9234;49.344;11.120;2023-07-16T10:08:22;2.95;;;1.48;;
18217;SDS011;9234;49.344;11.120;2023-07-16T10:10:53;4.00;;;1.90;;
18217;SDS011;9234;49.344;11.120;2023-07-16T10:13:24;4.47;;;2.05;;
18217;SDS011;9234;49.344;11.120;2023-07-16T10:15:56;5.55;;;2.05;;
18217;SDS011;9234;49.344;11.120;2023-07-16T10:18:27;3.22;;;2.10;;
18217;SDS011;9234;49.344;11.120;2023-07-16T10:21:02;5.43;;;1.85;;
18217;SDS011;9234;49.344;11.120;2023-07-16T10:23:38;4.00;;;1.90;;
18217;SDS011;9234;49.344;11.120;2023-07-16T10:26:09;3.63;;;1.77;;
18217;SDS011;9234;49.344;11.120;2023-07-16T10:28:45;3.70;;;1.80;;
18217;SDS011;9234;49.344;11.120;2023-07-16T10:31:17;3.35;;;1.80;;
18217;SDS011;9234;49.344;11.120;2023-07-16T10:33:58;4.03;;;1.90;;
18217;SDS011;9234;49.344;11.120;2023-07-16T10:36:28;3.58;;;1.75;;
18217;SDS011;9234;49.344;11.120;2023-07-16T10:39:02;3.88;;;1.70;;
18217;SDS011;9234;49.344;11.120;2023-07-16T10:41:31;2.97;;;1.80;;
18217;SDS011;9234;49.344;11.120;2023-07-16T10:44:01;3.72;;;1.75;;
18217;SDS011;9234;49.344;11.120;2023-07-16T10:46:31;3.28;;;1.77;;
18217;SDS011;9234;49.344;11.120;2023-07-16T10:49:00;4.68;;;1.90;;
18217;SDS011;9234;49.344;11.120;2023-07-16T10:51:29;3.83;;;1.65;;
18217;SDS011;9234;49.344;11.120;2023-07-16T10:53:57;4.88;;;1.98;;
18217;SDS011;9234;49.344;11.120;2023-07-16T10:56:27;4.65;;;2.70;;
18217;SDS011;9234;49.344;11.120;2023-07-16T10:58:55;5.45;;;2.13;;
18217;SDS011;9234;49.344;11.120;2023-07-16T11:01:24;6.43;;;1.90;;
18217;SDS011;9234;49.344;11.120;2023-07-16T11:03:52;4.07;;;1.88;;
18217;SDS011;9234;49.344;11.120;2023-07-16T11:06:20;5.28;;;1.90;;
18217;SDS011;9234;49.344;11.120;2023-07-16T11:08:50;4.10;;;2.28;;
18217;SDS011;9234;49.344;11.120;2023-07-16T11:11:28;2.42;;;1.55;;
18217;SDS011;9234;49.344;11.120;2023-07-16T11:13:57;4.43;;;1.80;;
18217;SDS011;9234;49.344;11.120;2023-07-16T11:16:25;4.20;;;1.80;;
18217;SDS011;9234;49.344;11.120;2023-07-16T11:18:54;6.72;;;2.30;;
18217;SDS011;9234;49.344;11.120;2023-07-16T11:21:22;3.70;;;1.80;;
18217;SDS011;9234;49.344;11.120;2023-07-16T11:23:50;4.13;;;2.05;;
18217;SDS011;9234;49.344;11.120;2023-07-16T11:26:18;4.10;;;2.10;;
18217;SDS011;9234;49.344;11.120;2023-07-16T11:28:49;4.25;;;1.83;;
18217;SDS011;9234;49.344;11.120;2023-07-16T11:31:18;5.18;;;2.35;;
18217;SDS011;9234;49.344;11.120;2023-07-16T11:33:50;3.55;;;1.63;;
18217;SDS011;9234;49.344;11.120;2023-07-16T11:36:18;4.10;;;2.13;;
18217;SDS011;9234;49.344;11.120;2023-07-16T11:38:48;3.90;;;1.98;;
18217;SDS011;9234;49.344;11.120;2023-07-16T11:41:19;4.22;;;1.65;;
18217;SDS011;9234;49.344;11.120;2023-07-16T11:43:50;4.68;;;1.83;;
18217;SDS011;9234;49.344;11.120;2023-07-16T11:46:18;4.32;;;2.20;;
18217;SDS011;9234;49.344;11.120;2023-07-16T11:48:47;2.97;;;1.80;;
18217;SDS011;9234;49.344;11.120;2023-07-16T11:51:15;4.63;;;1.88;;
18217;SDS011;9234;49.344;11.120;2023-07-16T11:53:44;2.80;;;1.35;;
18217;SDS011;9234;49.344;11.120;2023-07-16T11:56:12;6.80;;;2.08;;
18217;SDS011;9234;49.344;11.120;2023-07-16T11:58:41;3.55;;;1.60;;
18217;SDS011;9234;49.344;11.120;2023-07-16T12:01:11;2.67;;;1.58;;
18217;SDS011;9234;49.344;11.120;2023-07-16T12:03:41;4.13;;;1.63;;
18217;SDS011;9234;49.344;11.120;2023-07-16T12:06:09;3.33;;;1.30;;
18217;SDS011;9234;49.344;11.120;2023-07-16T12:08:37;5.00;;;1.67;;
18217;SDS011;9234;49.344;11.120;2023-07-16T12:11:05;2.63;;;1.83;;
18217;SDS011;9234;49.344;11.120;2023-07-16T12:13:34;3.15;;;2.15;;
18217;SDS011;9234;49.344;11.120;2023-07-16T12:16:02;4.43;;;1.55;;
18217;SDS011;9234;49.344;11.120;2023-07-16T12:18:32;4.22;;;1.70;;
18217;SDS011;9234;49.344;11.120;2023-07-16T12:21:00;2.97;;;1.48;;
18217;SDS011;9234;49.344;11.120;2023-07-16T12:23:30;4.05;;;1.70;;
18217;SDS011;9234;49.344;11.120;2023-07-16T12:25:58;3.63;;;1.40;;
18217;SDS011;9234;49.344;11.120;2023-07-16T12:28:26;2.30;;;1.23;;
18217;SDS011;9234;49.344;11.120;2023-07-16T12:30:54;4.57;;;1.70;;
18217;SDS011;9234;49.344;11.120;2023-07-16T12:33:23;2.42;;;1.70;;
18217;SDS011;9234;49.344;11.120;2023-07-16T12:35:53;3.20;;;1.42;;
18217;SDS011;9234;49.344;11.120;2023-07-16T12:38:21;3.38;;;2.05;;
18217;SDS011;9234;49.344;11.120;2023-07-16T12:40:50;2.65;;;1.80;;
18217;SDS011;9234;49.344;11.120;2023-07-16T12:43:18;3.47;;;1.77;;
18217;SDS011;9234;49.344;11.120;2023-07-16T12:45:46;3.60;;;1.55;;
18217;SDS011;9234;49.344;11.120;2023-07-16T12:48:15;4.10;;;1.63;;
18217;SDS011;9234;49.344;11.120;2023-07-16T12:50:44;2.67;;;1.15;;
18217;SDS011;9234;49.344;11.120;2023-07-16T12:53:14;2.83;;;1.65;;
18217;SDS011;9234;49.344;11.120;2023-07-16T12:55:42;2.42;;;1.60;;
18217;SDS011;9234;49.344;11.120;2023-07-16T12:58:11;3.90;;;1.70;;
18217;SDS011;9234;49.344;11.120;2023-07-16T13:00:39;3.17;;;1.52;;
18217;SDS011;9234;49.344;11.120;2023-07-16T13:03:11;3.40;;;1.83;;
18217;SDS011;9234;49.344;11.120;2023-07-16T13:05:43;4.38;;;1.77;;
18217;SDS011;9234;49.344;11.120;2023-07-16T13:08:14;1.73;;;1.38;;
18217;SDS011;9234;49.344;11.120;2023-07-16T13:10:43;3.70;;;2.33;;
18217;SDS011;9234;49.344;11.120;2023-07-16T13:13:11;6.93;;;2.15;;
18217;SDS011;9234;49.344;11.120;2023-07-16T13:15:40;3.58;;;1.70;;
18217;SDS011;9234;49.344;11.120;2023-07-16T13:18:09;3.75;;;1.75;;
18217;SDS011;9234;49.344;11.120;2023-07-16T13:20:38;2.25;;;1.73;;
18217;SDS011;9234;49.344;11.120;2023-07-16T13:23:07;4.68;;;1.60;;
18217;SDS011;9234;49.344;11.120;2023-07-16T13:25:37;2.80;;;1.60;;
18217;SDS011;9234;49.344;11.120;2023-07-16T13:28:06;2.08;;;1.10;;
18217;SDS011;9234;49.344;11.120;2023-07-16T13:30:35;5.13;;;1.90;;
18217;SDS011;9234;49.344;11.120;2023-07-16T13:33:03;4.97;;;1.90;;
18217;SDS011;9234;49.344;11.120;2023-07-16T13:35:32;1.75;;;1.33;;
18217;SDS011;9234;49.344;11.120;2023-07-16T13:38:00;3.92;;;1.60;;
18217;SDS011;9234;49.344;11.120;2023-07-16T13:40:29;6.38;;;1.67;;
18217;SDS011;9234;49.344;11.120;2023-07-16T13:42:59;2.67;;;1.65;;
18217;SDS011;9234;49.344;11.120;2023-07-16T13:45:27;4.72;;;1.80;;
18217;SDS011;9234;49.344;11.120;2023-07-16T13:47:56;3.17;;;1.48;;
18217;SDS011;9234;49.344;11.120;2023-07-16T13:50:24;2.15;;;1.70;;
18217;SDS011;9234;49.344;11.120;2023-07-16T13:52:52;4.10;;;1.98;;
18217;SDS011;9234;49.344;11.120;2023-07-16T13:55:21;4.00;;;2.08;;
18217;SDS011;9234;49.344;11.120;2023-07-16T13:57:49;2.50;;;1.55;;
18217;SDS011;9234;49.344;11.120;2023-07-16T14:00:19;4.70;;;2.28;;
18217;SDS011;9234;49.344;11.120;2023-07-16T14:02:48;2.75;;;1.85;;
18217;SDS011;9234;49.344;11.120;2023-07-16T14:05:17;3.13;;;1.60;;
18217;SDS011;9234;49.344;11.120;2023-07-16T14:07:46;3.75;;;1.75;;
18217;SDS011;9234;49.344;11.120;2023-07-16T14:10:16;2.60;;;1.67;;
18217;SDS011;9234;49.344;11.120;2023-07-16T14:12:44;2.72;;;1.42;;
18217;SDS011;9234;49.344;11.120;2023-07-16T14:15:12;5.72;;;1.67;;
18217;SDS011;9234;49.344;11.120;2023-07-16T14:17:45;4.00;;;1.70;;
18217;SDS011;9234;49.344;11.120;2023-07-16T14:20:14;5.13;;;2.20;;
18217;SDS011;9234;49.344;11.120;2023-07-16T14:22:42;3.17;;;1.90;;
18217;SDS011;9234;49.344;11.120;2023-07-16T14:25:11;1.58;;;1.45;;
18217;SDS011;9234;49.344;11.120;2023-07-16T14:27:39;9.30;;;7.85;;
18217;SDS011;9234;49.344;11.120;2023-07-16T14:30:08;3.53;;;1.90;;
18217;SDS011;9234;49.344;11.120;2023-07-16T14:32:37;4.45;;;2.53;;
18217;SDS011;9234;49.344;11.120;2023-07-16T14:35:07;7.72;;;2.28;;
18217;SDS011;9234;49.344;11.120;2023-07-16T14:37:55;3.38;;;1.80;;
18217;SDS011;9234;49.344;11.120;2023-07-16T14:40:25;3.35;;;1.98;;
18217;SDS011;9234;49.344;11.120;2023-07-16T14:42:53;2.30;;;1.45;;
18217;SDS011;9234;49.344;11.120;2023-07-16T14:45:22;2.85;;;2.00;;
18217;SDS011;9234;49.344;11.120;2023-07-16T14:47:52;5.13;;;2.40;;
18217;SDS011;9234;49.344;11.120;2023-07-16T14:50:21;2.75;;;1.73;;
18217;SDS011;9234;49.344;11.120;2023-07-16T14:52:51;10.02;;;7.32;;
18217;SDS011;9234;49.344;11.120;2023-07-16T14:55:19;2.55;;;2.33;;
18217;SDS011;9234;49.344;11.120;2023-07-16T14:57:51;2.38;;;2.17;;
18217;SDS011;9234;49.344;11.120;2023-07-16T15:00:20;4.18;;;2.13;;
18217;SDS011;9234;49.344;11.120;2023-07-16T15:02:49;3.40;;;2.78;;